createdAt,value
2022-12-08T00:02:29.994Z,84.88
2022-12-08T00:05:19.934Z,84.92
2022-12-08T00:08:09.601Z,84.99
2022-12-08T00:10:50.792Z,84.75
2022-12-08T00:13:23.026Z,85.01
2022-12-08T00:16:00.711Z,84.90
2022-12-08T00:18:32.829Z,84.85
2022-12-08T00:21:05.152Z,84.73
2022-12-08T00:23:37.267Z,84.56
2022-12-08T00:26:09.803Z,84.43
2022-12-08T00:28:42.078Z,84.13
2022-12-08T00:31:14.641Z,83.99
2022-12-08T00:33:46.820Z,83.89
2022-12-08T00:36:18.973Z,83.79
2022-12-08T00:38:51.104Z,83.82
2022-12-08T00:41:44.656Z,83.86
2022-12-08T00:44:18.943Z,83.85
2022-12-08T00:46:51.996Z,83.88
2022-12-08T00:49:24.442Z,83.97
2022-12-08T00:51:56.717Z,84.04
2022-12-08T00:54:29.009Z,84.00
2022-12-08T00:57:01.149Z,83.91
2022-12-08T00:59:33.330Z,83.90
2022-12-08T01:02:06.007Z,83.75
2022-12-08T01:04:38.264Z,83.70
2022-12-08T01:07:10.968Z,83.68
2022-12-08T01:09:43.151Z,83.56
2022-12-08T01:12:15.319Z,83.59
2022-12-08T01:14:47.705Z,83.92
2022-12-08T01:17:20.356Z,83.95
2022-12-08T01:19:52.581Z,84.07
2022-12-08T01:22:24.749Z,84.26
2022-12-08T01:24:56.999Z,84.42
2022-12-08T01:27:29.134Z,84.45
2022-12-08T01:30:01.317Z,84.57
2022-12-08T01:32:33.589Z,84.62
2022-12-08T01:35:05.888Z,84.58
2022-12-08T01:37:37.996Z,84.50
2022-12-08T01:40:11.724Z,84.44
2022-12-08T01:42:43.869Z,84.19
2022-12-08T01:45:26.396Z,83.89
2022-12-08T01:48:01.952Z,83.74
2022-12-08T01:50:35.438Z,83.79
2022-12-08T01:53:13.318Z,83.73
2022-12-08T01:55:49.896Z,84.07
2022-12-08T01:58:26.756Z,84.17
2022-12-08T02:00:59.351Z,84.21
2022-12-08T02:03:35.641Z,84.50
2022-12-08T02:06:09.628Z,84.54
2022-12-08T02:08:43.333Z,84.85
2022-12-08T02:11:16.051Z,84.88
2022-12-08T02:13:49.760Z,84.91
2022-12-08T02:16:36.433Z,84.85
2022-12-08T02:19:31.809Z,85.04
2022-12-08T02:22:12.488Z,84.92
2022-12-08T02:24:56.310Z,84.89
2022-12-08T02:27:49.206Z,84.87
2022-12-08T02:30:30.178Z,84.98
2022-12-08T02:33:28.886Z,84.92
2022-12-08T02:36:09.535Z,84.90
2022-12-08T02:38:51.125Z,85.03
2022-12-08T02:41:35.863Z,84.96
2022-12-08T02:44:13.935Z,85.09
2022-12-08T02:46:48.662Z,85.41
2022-12-08T02:49:21.040Z,85.11
2022-12-08T02:51:53.996Z,85.25
2022-12-08T02:54:26.353Z,85.22
2022-12-08T02:57:15.724Z,85.45
2022-12-08T03:00:07.733Z,85.57
2022-12-08T03:02:54.457Z,85.68
2022-12-08T03:05:37.596Z,85.81
2022-12-08T03:08:16.320Z,85.80
2022-12-08T03:10:54.278Z,85.59
2022-12-08T03:13:31.890Z,85.60
2022-12-08T03:16:07.848Z,85.32
2022-12-08T03:18:44.415Z,85.21
2022-12-08T03:21:20.484Z,85.02
2022-12-08T03:23:56.584Z,84.78
2022-12-08T03:26:36.426Z,84.83
2022-12-08T03:29:09.342Z,85.02
2022-12-08T03:31:44.920Z,85.03
2022-12-08T03:34:18.342Z,85.03
2022-12-08T03:36:50.876Z,85.16
2022-12-08T03:39:23.419Z,85.22
2022-12-08T03:41:55.601Z,85.28
2022-12-08T03:44:27.913Z,85.27
2022-12-08T03:47:00.119Z,85.13
2022-12-08T03:49:32.393Z,84.99
2022-12-08T03:52:04.797Z,84.94
2022-12-08T03:54:37.037Z,84.78
2022-12-08T03:57:09.356Z,84.87
2022-12-08T03:59:42.141Z,84.70
2022-12-08T04:02:14.522Z,84.82
2022-12-08T04:04:46.878Z,84.85
2022-12-08T04:07:19.164Z,84.87
2022-12-08T04:09:51.396Z,84.92
2022-12-08T04:12:23.729Z,84.93
2022-12-08T04:14:56.036Z,84.99
2022-12-08T04:17:28.500Z,84.94
2022-12-08T04:20:01.057Z,84.96
2022-12-08T04:22:33.407Z,84.74
2022-12-08T04:25:06.772Z,84.50
2022-12-08T04:27:39.080Z,84.66
2022-12-08T04:30:13.051Z,84.75
2022-12-08T04:32:47.528Z,84.76
2022-12-08T04:35:20.107Z,84.77
2022-12-08T04:37:52.996Z,84.71
2022-12-08T04:40:25.322Z,84.83
2022-12-08T04:42:57.634Z,84.99
2022-12-08T04:45:30.020Z,85.13
2022-12-08T04:48:03.258Z,85.12
2022-12-08T04:50:36.286Z,85.10
2022-12-08T04:53:08.590Z,85.20
2022-12-08T04:55:43.915Z,85.20
2022-12-08T04:58:18.301Z,85.10
2022-12-08T05:00:51.535Z,85.37
2022-12-08T05:03:28.558Z,85.58
2022-12-08T05:06:03.886Z,85.48
2022-12-08T05:08:36.579Z,85.60
2022-12-08T05:11:11.326Z,85.67
2022-12-08T05:13:44.041Z,85.74
2022-12-08T05:16:17.057Z,85.79
2022-12-08T05:18:49.292Z,85.84
2022-12-08T05:21:21.568Z,85.71
2022-12-08T05:23:53.979Z,85.74
2022-12-08T05:26:26.841Z,85.72
2022-12-08T05:28:59.388Z,85.62
2022-12-08T05:31:31.784Z,85.71
2022-12-08T05:34:04.137Z,85.62
2022-12-08T05:36:36.421Z,85.83
2022-12-08T05:39:09.025Z,85.68
2022-12-08T05:41:42.057Z,85.61
2022-12-08T05:44:14.583Z,85.49
2022-12-08T05:46:46.695Z,85.56
2022-12-08T05:49:19.290Z,85.21
2022-12-08T05:51:51.532Z,85.02
2022-12-08T05:54:24.108Z,84.84
2022-12-08T05:56:56.592Z,84.66
2022-12-08T05:59:28.798Z,84.60
2022-12-08T06:02:01.096Z,84.71
2022-12-08T06:04:33.459Z,84.80
2022-12-08T06:07:06.246Z,84.89
2022-12-08T06:09:38.655Z,84.92
2022-12-08T06:12:12.160Z,84.97
2022-12-08T06:14:44.903Z,85.03
2022-12-08T06:17:17.313Z,85.07
2022-12-08T06:19:50.360Z,85.29
2022-12-08T06:22:22.703Z,85.41
2022-12-08T06:24:55.007Z,85.46
2022-12-08T06:27:27.910Z,85.37
2022-12-08T06:30:00.615Z,85.38
2022-12-08T06:32:33.244Z,85.70
2022-12-08T06:35:05.762Z,85.83
2022-12-08T06:37:37.964Z,85.94
2022-12-08T06:40:12.570Z,86.14
2022-12-08T06:42:47.447Z,86.16
2022-12-08T06:45:20.684Z,86.24
2022-12-08T06:47:53.011Z,86.26
2022-12-08T06:50:25.540Z,86.22
2022-12-08T06:53:04.899Z,86.42
2022-12-08T06:58:30.124Z,86.21
2022-12-08T07:01:07.914Z,86.21
2022-12-08T07:03:43.591Z,86.06
2022-12-08T07:06:20.658Z,86.25
2022-12-08T07:08:53.246Z,86.19
2022-12-08T07:11:25.577Z,86.25
2022-12-08T07:13:58.476Z,86.08
2022-12-08T07:16:31.501Z,85.97
2022-12-08T07:19:03.710Z,85.74
2022-12-08T07:21:36.160Z,85.60
2022-12-08T07:24:10.603Z,85.27
2022-12-08T07:26:44.111Z,85.05
2022-12-08T07:29:19.356Z,84.80
2022-12-08T07:31:55.235Z,84.78
2022-12-08T07:34:27.713Z,84.63
2022-12-08T07:36:59.901Z,84.67
2022-12-08T07:39:32.415Z,84.50
2022-12-08T07:42:04.698Z,84.33
2022-12-08T07:44:37.175Z,84.54
2022-12-08T07:47:09.653Z,83.94
2022-12-08T07:49:41.959Z,83.69
2022-12-08T07:52:14.446Z,83.66
2022-12-08T07:54:46.671Z,83.38
2022-12-08T07:57:18.933Z,83.18
2022-12-08T07:59:51.416Z,83.04
2022-12-08T08:02:25.609Z,82.81
2022-12-08T08:04:59.113Z,82.40
2022-12-08T08:07:33.463Z,82.55
2022-12-08T08:10:07.277Z,82.55
2022-12-08T08:12:40.630Z,82.47
2022-12-08T08:15:13.568Z,82.49
2022-12-08T08:17:50.122Z,82.15
2022-12-08T08:20:23.521Z,81.70
2022-12-08T08:22:55.666Z,81.80
2022-12-08T08:25:28.040Z,81.35
2022-12-08T08:28:00.163Z,81.06
2022-12-08T08:30:32.621Z,81.44
2022-12-08T08:33:04.887Z,80.98
2022-12-08T08:35:37.522Z,79.99
2022-12-08T08:38:09.950Z,80.52
2022-12-08T08:40:42.140Z,80.82
2022-12-08T08:43:32.936Z,80.63
2022-12-08T08:46:10.131Z,80.33
2022-12-08T08:48:42.502Z,79.56
2022-12-08T08:51:16.572Z,79.23
2022-12-08T08:53:49.546Z,78.55
2022-12-08T08:56:22.474Z,78.43
2022-12-08T08:58:55.364Z,78.10
2022-12-08T09:01:29.397Z,77.94
2022-12-08T09:04:01.820Z,77.82
2022-12-08T09:06:34.889Z,77.30
2022-12-08T09:09:08.482Z,77.79
2022-12-08T09:11:40.624Z,77.89
2022-12-08T09:14:15.481Z,77.72
2022-12-08T09:16:48.087Z,77.56
2022-12-08T09:19:20.457Z,77.44
2022-12-08T09:21:53.008Z,77.47
2022-12-08T09:24:25.538Z,77.12
2022-12-08T09:26:57.885Z,76.20
2022-12-08T09:29:35.908Z,75.69
2022-12-08T09:32:08.858Z,75.83
2022-12-08T09:34:41.360Z,74.91
2022-12-08T09:37:13.617Z,74.84
2022-12-08T09:39:45.892Z,75.14
2022-12-08T09:42:28.225Z,74.60
2022-12-08T09:45:09.946Z,74.76
2022-12-08T09:47:45.170Z,75.28
2022-12-08T09:50:30.481Z,74.85
2022-12-08T09:53:08.577Z,74.00
2022-12-08T09:55:45.404Z,73.46
2022-12-08T09:58:26.811Z,72.93
2022-12-08T10:00:59.407Z,72.80
2022-12-08T10:03:32.903Z,72.97
2022-12-08T10:06:17.798Z,73.27
2022-12-08T10:09:00.028Z,72.94
2022-12-08T10:11:39.482Z,72.49
2022-12-08T10:14:23.323Z,72.27
2022-12-08T10:17:02.363Z,71.89
2022-12-08T10:19:37.538Z,71.88
2022-12-08T10:22:18.711Z,71.63
2022-12-08T10:24:59.122Z,72.11
2022-12-08T10:27:32.613Z,71.55
2022-12-08T10:30:11.064Z,71.73
2022-12-08T10:32:45.599Z,70.88
2022-12-08T10:35:19.561Z,71.17
2022-12-08T10:38:00.604Z,71.31
2022-12-08T10:40:45.459Z,70.68
2022-12-08T10:43:23.186Z,69.47
2022-12-08T10:45:56.138Z,68.57
2022-12-08T10:48:31.705Z,67.74
2022-12-08T10:51:05.772Z,67.85
2022-12-08T10:53:50.408Z,68.33
2022-12-08T10:56:29.142Z,67.69
2022-12-08T10:59:17.845Z,68.24
2022-12-08T11:01:52.434Z,68.64
2022-12-08T11:04:35.358Z,69.41
2022-12-08T11:07:11.094Z,69.83
2022-12-08T11:09:48.987Z,70.07
2022-12-08T11:12:22.853Z,70.54
2022-12-08T11:15:03.804Z,70.85
2022-12-08T11:17:40.624Z,71.07
2022-12-08T11:20:24.579Z,70.58
2022-12-08T11:22:57.745Z,70.44
2022-12-08T11:25:31.149Z,70.05
2022-12-08T11:28:04.258Z,68.64
2022-12-08T11:30:40.231Z,68.12
2022-12-08T11:33:19.561Z,67.03
2022-12-08T11:35:57.017Z,66.44
2022-12-08T11:38:30.934Z,66.85
2022-12-08T11:41:12.467Z,67.09
2022-12-08T11:43:54.613Z,67.03
2022-12-08T11:46:33.851Z,66.70
2022-12-08T11:49:10.786Z,66.68
2022-12-08T11:51:51.040Z,67.56
2022-12-08T11:54:28.817Z,67.78
2022-12-08T11:57:03.144Z,68.04
2022-12-08T11:59:38.552Z,67.16
2022-12-08T12:02:17.419Z,67.14
2022-12-08T12:04:55.027Z,67.45
2022-12-08T12:07:41.898Z,67.68
2022-12-08T12:10:43.979Z,67.60
2022-12-08T12:13:43.442Z,68.08
2022-12-08T12:16:55.633Z,68.28
2022-12-08T12:19:28.691Z,68.19
2022-12-08T12:22:04.301Z,68.78
2022-12-08T12:24:39.938Z,68.85
2022-12-08T12:27:29.511Z,69.06
2022-12-08T12:30:06.125Z,69.05
2022-12-08T12:32:48.326Z,69.38
2022-12-08T12:35:28.473Z,69.48
2022-12-08T12:38:04.521Z,69.01
2022-12-08T12:40:44.806Z,68.73
2022-12-08T12:43:30.042Z,68.74
2022-12-08T12:46:35.381Z,68.88
2022-12-08T12:49:43.786Z,68.71
2022-12-08T12:52:42.670Z,68.79
2022-12-08T12:55:27.402Z,69.35
2022-12-08T12:58:00.266Z,69.43
2022-12-08T13:00:32.577Z,69.79
2022-12-08T13:03:05.459Z,70.29
2022-12-08T13:05:52.345Z,70.43
2022-12-08T13:08:27.690Z,70.39
2022-12-08T13:11:04.605Z,70.62
2022-12-08T13:13:37.486Z,71.23
2022-12-08T13:16:21.599Z,71.35
2022-12-08T13:18:58.430Z,71.45
2022-12-08T13:21:36.479Z,71.45
2022-12-08T13:24:28.220Z,71.24
2022-12-08T13:27:36.195Z,71.11
2022-12-08T13:30:44.118Z,71.00
2022-12-08T13:33:19.114Z,70.98
2022-12-08T13:35:58.019Z,71.40
2022-12-08T13:38:34.010Z,71.15
2022-12-08T13:41:10.530Z,71.05
2022-12-08T13:44:10.576Z,71.38
2022-12-08T13:47:16.839Z,71.57
2022-12-08T13:56:51.277Z,72.59
2022-12-08T13:58:31.788Z,72.86
2022-12-08T14:01:10.364Z,72.83
2022-12-08T14:04:28.489Z,73.07
2022-12-08T14:06:49.777Z,73.28
2022-12-08T14:09:25.094Z,73.43
2022-12-08T14:12:00.304Z,73.24
2022-12-08T14:15:01.848Z,73.68
2022-12-08T14:17:30.205Z,73.96
2022-12-08T14:20:06.787Z,74.16
2022-12-08T14:22:42.366Z,74.35
2022-12-08T14:25:17.969Z,74.10
2022-12-08T14:27:51.372Z,74.39
2022-12-08T14:30:26.221Z,74.67
2022-12-08T14:32:59.828Z,74.92
2022-12-08T14:35:33.548Z,75.03
2022-12-08T14:38:12.932Z,75.24
2022-12-08T14:40:46.702Z,75.25
2022-12-08T14:43:21.838Z,75.27
2022-12-08T14:45:57.268Z,75.29
2022-12-08T14:48:44.626Z,75.29
2022-12-08T14:51:24.823Z,75.44
2022-12-08T14:53:59.812Z,75.43
2022-12-08T14:56:38.467Z,75.38
2022-12-08T14:59:20.245Z,75.70
2022-12-08T15:01:54.906Z,75.84
2022-12-08T15:04:30.107Z,76.11
2022-12-08T15:07:06.222Z,76.35
2022-12-08T15:09:41.751Z,76.41
2022-12-08T15:12:27.346Z,76.53
2022-12-08T15:15:02.977Z,76.69
2022-12-08T15:17:44.195Z,76.57
2022-12-08T15:20:35.882Z,76.52
2022-12-08T15:23:18.883Z,76.44
2022-12-08T15:25:52.206Z,76.56
2022-12-08T15:28:30.108Z,76.64
2022-12-08T15:31:01.873Z,76.70
2022-12-08T15:33:34.271Z,76.94
2022-12-08T15:36:08.526Z,77.04
2022-12-08T15:38:41.462Z,77.34
2022-12-08T15:41:15.280Z,77.34
2022-12-08T15:43:47.903Z,77.57
2022-12-08T15:46:20.242Z,77.61
2022-12-08T15:48:57.916Z,77.72
2022-12-08T15:51:31.106Z,77.75
2022-12-08T15:54:03.516Z,77.70
2022-12-08T15:56:41.203Z,77.74
2022-12-08T15:59:28.695Z,77.82
2022-12-08T16:02:01.064Z,77.81
2022-12-08T16:07:28.436Z,77.76
2022-12-08T16:10:01.457Z,77.66
2022-12-08T16:15:59.850Z,77.67
2022-12-08T16:18:36.075Z,77.75
2022-12-08T16:21:25.534Z,77.79
2022-12-08T16:24:04.625Z,77.92
2022-12-08T16:29:32.271Z,77.89
2022-12-08T16:32:04.709Z,77.85
2022-12-08T16:34:36.910Z,77.90
2022-12-08T16:37:10.130Z,77.58
2022-12-08T16:39:45.769Z,77.80
2022-12-08T16:42:37.903Z,77.85
2022-12-08T16:45:13.207Z,77.69
2022-12-08T16:47:47.356Z,77.58
2022-12-08T16:50:20.267Z,77.69
2022-12-08T16:52:57.060Z,77.76
2022-12-08T16:55:29.585Z,77.75
2022-12-08T16:58:02.726Z,77.56
2022-12-08T17:00:37.190Z,77.32
2022-12-08T17:03:10.997Z,77.27
2022-12-08T17:05:44.774Z,77.13
2022-12-08T17:08:17.094Z,76.88
2022-12-08T17:11:07.314Z,77.00
2022-12-08T17:13:41.897Z,77.18
2022-12-08T17:16:17.786Z,76.86
2022-12-08T17:18:50.787Z,77.02
2022-12-08T17:21:22.994Z,77.19
2022-12-08T17:23:55.137Z,77.08
2022-12-08T17:26:27.327Z,77.17
2022-12-08T17:29:02.674Z,77.12
2022-12-08T17:31:35.244Z,77.01
2022-12-08T17:34:10.449Z,77.06
2022-12-08T17:36:42.844Z,76.97
2022-12-08T17:39:18.650Z,76.96
2022-12-08T17:41:51.318Z,76.90
2022-12-08T17:44:23.463Z,76.98
2022-12-08T17:46:55.585Z,76.94
2022-12-08T17:49:29.837Z,77.10
2022-12-08T17:52:04.716Z,77.26
2022-12-08T17:54:37.049Z,77.46
2022-12-08T17:57:09.198Z,77.46
2022-12-08T17:59:41.355Z,77.66
2022-12-08T18:02:13.896Z,77.69
2022-12-08T18:04:46.181Z,77.73
2022-12-08T18:07:18.376Z,77.74
2022-12-08T18:09:51.930Z,77.56
2022-12-08T18:12:24.189Z,77.51
2022-12-08T18:14:56.488Z,77.41
2022-12-08T18:17:28.951Z,77.64
2022-12-08T18:20:01.152Z,77.58
2022-12-08T18:22:33.348Z,77.71
2022-12-08T18:25:06.854Z,77.93
2022-12-08T18:27:43.137Z,78.09
2022-12-08T18:30:19.206Z,78.28
2022-12-08T18:32:57.093Z,78.29
2022-12-08T18:35:29.544Z,78.52
2022-12-08T18:38:02.075Z,78.54
2022-12-08T18:40:34.499Z,78.57
2022-12-08T18:43:06.693Z,78.58
2022-12-08T18:45:41.407Z,78.60
2022-12-08T18:48:13.590Z,78.35
2022-12-08T18:50:45.939Z,78.34
2022-12-08T18:53:18.957Z,78.24
2022-12-08T18:55:52.062Z,77.99
2022-12-08T18:58:24.447Z,77.95
2022-12-08T19:00:56.640Z,78.05
2022-12-08T19:03:29.618Z,78.08
2022-12-08T19:06:09.004Z,78.14
2022-12-08T19:08:41.389Z,78.28
2022-12-08T19:11:22.396Z,78.52
2022-12-08T19:13:55.712Z,78.79
2022-12-08T19:16:28.173Z,78.85
2022-12-08T19:19:01.979Z,78.82
2022-12-08T19:21:34.572Z,78.79
2022-12-08T19:24:08.175Z,78.85
2022-12-08T19:26:41.399Z,78.97
2022-12-08T19:29:14.338Z,79.03
2022-12-08T19:31:46.726Z,79.08
2022-12-08T19:34:18.976Z,79.09
2022-12-08T19:36:51.289Z,79.13
2022-12-08T19:39:42.971Z,79.17
2022-12-08T19:42:36.322Z,79.18
2022-12-08T19:45:12.375Z,79.14
2022-12-08T19:47:45.171Z,78.96
2022-12-08T19:50:35.775Z,78.95
2022-12-08T19:53:10.142Z,79.07
2022-12-08T19:55:43.047Z,78.78
2022-12-08T19:58:15.192Z,78.56
2022-12-08T20:00:48.188Z,78.71
2022-12-08T20:03:22.220Z,78.76
2022-12-08T20:05:56.368Z,78.71
2022-12-08T20:08:28.787Z,78.49
2022-12-08T20:11:00.984Z,78.53
2022-12-08T20:13:43.890Z,78.39
2022-12-08T20:16:17.254Z,78.40
2022-12-08T20:18:49.467Z,78.70
2022-12-08T20:21:22.143Z,78.53
2022-12-08T20:23:55.599Z,78.32
2022-12-08T20:26:27.770Z,78.60
2022-12-08T20:28:59.969Z,78.44
2022-12-08T20:31:34.388Z,78.44
2022-12-08T20:34:06.894Z,78.30
2022-12-08T20:36:39.057Z,78.16
2022-12-08T20:39:14.627Z,78.40
2022-12-08T20:41:48.194Z,78.34
2022-12-08T20:44:20.726Z,78.35
2022-12-08T20:46:53.061Z,78.40
2022-12-08T20:49:28.544Z,78.42
2022-12-08T20:52:05.271Z,78.36
2022-12-08T20:54:38.162Z,77.97
2022-12-08T20:57:10.469Z,77.97
2022-12-08T20:59:42.686Z,77.57
2022-12-08T21:02:14.984Z,77.44
2022-12-08T21:04:47.313Z,77.57
2022-12-08T21:07:19.707Z,77.73
2022-12-08T21:09:52.877Z,77.95
2022-12-08T21:12:25.129Z,77.90
2022-12-08T21:14:57.942Z,77.88
2022-12-08T21:17:30.429Z,77.95
2022-12-08T21:20:03.081Z,77.93
2022-12-08T21:22:35.521Z,77.74
2022-12-08T21:25:09.250Z,77.62
2022-12-08T21:27:42.059Z,77.98
2022-12-08T21:30:16.244Z,78.08
2022-12-08T21:32:49.446Z,77.70
2022-12-08T21:35:21.870Z,77.50
2022-12-08T21:37:54.247Z,77.78
2022-12-08T21:40:27.105Z,77.92
2022-12-08T21:42:59.357Z,77.73
2022-12-08T21:45:32.656Z,77.84
2022-12-08T21:48:10.967Z,77.73
2022-12-08T21:50:44.157Z,77.79
2022-12-08T21:53:16.561Z,77.66
2022-12-08T21:55:48.806Z,77.58
2022-12-08T21:58:21.552Z,77.63
2022-12-08T22:00:53.890Z,77.84
2022-12-08T22:03:26.863Z,77.90
2022-12-08T22:05:59.529Z,77.89
2022-12-08T22:08:31.827Z,77.80
2022-12-08T22:11:04.630Z,77.55
2022-12-08T22:13:38.650Z,77.69
2022-12-08T22:16:14.926Z,77.52
2022-12-08T22:18:47.175Z,77.51
2022-12-08T22:21:20.332Z,77.59
2022-12-08T22:23:52.727Z,77.60
2022-12-08T22:26:24.992Z,77.28
2022-12-08T22:28:57.314Z,77.11
2022-12-08T22:31:29.835Z,77.16
2022-12-08T22:34:02.105Z,77.17
2022-12-08T22:36:34.399Z,77.38
2022-12-08T22:39:07.128Z,77.62
2022-12-08T22:41:39.527Z,77.80
2022-12-08T22:44:12.697Z,77.97
2022-12-08T22:46:45.897Z,77.87
2022-12-08T22:49:18.135Z,78.11
2022-12-08T22:51:50.304Z,78.08
2022-12-08T22:54:22.647Z,78.01
2022-12-08T22:56:55.347Z,77.76
2022-12-08T22:59:28.052Z,77.83
2022-12-08T23:02:00.331Z,77.83
2022-12-08T23:04:32.886Z,77.63
2022-12-08T23:07:05.562Z,77.38
2022-12-08T23:09:37.673Z,77.00
2022-12-08T23:12:10.613Z,76.94
2022-12-08T23:14:43.234Z,76.89
2022-12-08T23:17:15.663Z,76.78
2022-12-08T23:19:47.887Z,76.83
2022-12-08T23:22:19.956Z,76.78
2022-12-08T23:24:52.289Z,77.12
2022-12-08T23:27:25.068Z,77.41
2022-12-08T23:29:57.331Z,77.56
2022-12-08T23:32:29.572Z,77.53
2022-12-08T23:35:01.807Z,77.24
2022-12-08T23:37:33.981Z,77.36
2022-12-08T23:40:07.865Z,77.48
2022-12-08T23:42:40.282Z,77.46
2022-12-08T23:45:13.601Z,77.48
2022-12-08T23:47:45.710Z,77.42
2022-12-08T23:50:18.268Z,77.23
2022-12-08T23:52:50.946Z,77.22
2022-12-08T23:55:23.506Z,76.83
2022-12-08T23:57:55.664Z,77.26
